createdAt,value
2022-12-18T00:03:28.071Z,-6.00
2022-12-18T00:08:30.827Z,-6.10
2022-12-18T00:13:33.603Z,-6.16
2022-12-18T00:18:36.812Z,-6.14
2022-12-18T00:23:41.631Z,-6.27
2022-12-18T00:28:45.658Z,-6.47
2022-12-18T00:33:49.090Z,-6.16
2022-12-18T00:38:58.387Z,-6.16
2022-12-18T00:44:01.228Z,-6.21
2022-12-18T00:49:04.144Z,-6.17
2022-12-18T00:54:06.902Z,-6.19
2022-12-18T00:59:09.504Z,-6.41
2022-12-18T01:04:12.677Z,-6.16
2022-12-18T01:09:15.789Z,-6.22
2022-12-18T01:14:18.315Z,-6.42
2022-12-18T01:19:20.879Z,-6.33
2022-12-18T01:24:23.821Z,-6.30
2022-12-18T01:29:26.583Z,-6.21
2022-12-18T01:34:30.516Z,-6.19
2022-12-18T01:39:34.001Z,-6.25
2022-12-18T01:45:07.865Z,-6.24
2022-12-18T01:50:33.320Z,-6.37
2022-12-18T01:55:44.077Z,-6.10
2022-12-18T02:00:49.721Z,-6.20
2022-12-18T02:06:04.889Z,-6.14
2022-12-18T02:11:47.619Z,-6.13
2022-12-18T02:16:58.352Z,-6.17
2022-12-18T02:22:15.891Z,-6.15
2022-12-18T02:27:19.764Z,-6.27
2022-12-18T02:32:29.900Z,-6.22
2022-12-18T02:37:35.150Z,-6.15
2022-12-18T02:42:40.935Z,-6.26
2022-12-18T02:47:49.120Z,-6.25
2022-12-18T02:53:13.043Z,-6.33
2022-12-18T02:58:19.855Z,-6.31
2022-12-18T03:03:33.705Z,-6.47
2022-12-18T03:08:47.274Z,-6.44
2022-12-18T03:13:57.222Z,-6.47
2022-12-18T03:19:08.073Z,-6.46
2022-12-18T03:24:12.311Z,-6.57
2022-12-18T03:29:22.028Z,-6.48
2022-12-18T03:34:31.761Z,-6.66
2022-12-18T03:39:38.146Z,-6.58
2022-12-18T03:44:46.869Z,-6.52
2022-12-18T03:50:09.596Z,-6.65
2022-12-18T03:55:16.650Z,-6.69
2022-12-18T04:00:22.210Z,-6.78
2022-12-18T04:05:33.061Z,-6.69
2022-12-18T04:10:37.337Z,-6.58
2022-12-18T04:15:40.840Z,-6.52
2022-12-18T04:20:48.627Z,-6.52
2022-12-18T04:25:53.895Z,-6.72
2022-12-18T04:31:10.061Z,-6.62
2022-12-18T04:36:13.562Z,-6.76
2022-12-18T04:41:16.894Z,-6.83
2022-12-18T04:46:22.389Z,-7.00
2022-12-18T04:51:26.866Z,-6.89
2022-12-18T04:56:29.534Z,-6.76
2022-12-18T05:01:34.752Z,-6.90
2022-12-18T05:06:37.796Z,-6.98
2022-12-18T05:11:40.287Z,-6.78
2022-12-18T05:16:42.829Z,-6.93
2022-12-18T05:21:45.512Z,-6.83
2022-12-18T05:26:48.451Z,-6.88
2022-12-18T05:31:51.118Z,-6.85
2022-12-18T05:36:53.628Z,-6.77
2022-12-18T05:41:56.241Z,-6.89
2022-12-18T05:46:59.040Z,-6.85
2022-12-18T05:52:01.907Z,-6.94
2022-12-18T05:57:04.625Z,-6.95
2022-12-18T06:02:07.875Z,-6.99
2022-12-18T06:07:10.603Z,-7.08
2022-12-18T06:12:13.222Z,-7.23
2022-12-18T06:17:15.791Z,-6.99
2022-12-18T06:22:18.376Z,-6.95
2022-12-18T06:27:20.922Z,-7.00
2022-12-18T06:32:23.452Z,-6.89
2022-12-18T06:37:27.201Z,-6.78
2022-12-18T06:42:30.225Z,-6.97
2022-12-18T06:47:33.074Z,-6.69
2022-12-18T06:52:35.872Z,-6.73
2022-12-18T06:57:38.931Z,-6.64
2022-12-18T07:02:41.731Z,-6.69
2022-12-18T07:07:44.479Z,-6.58
2022-12-18T07:12:47.286Z,-6.69
2022-12-18T07:17:49.843Z,-6.39
2022-12-18T07:22:56.230Z,-6.41
2022-12-18T07:27:59.213Z,-6.51
2022-12-18T07:33:01.734Z,-6.32
2022-12-18T07:38:04.263Z,-6.28
2022-12-18T07:43:06.823Z,-6.25
2022-12-18T07:48:09.526Z,-6.29
2022-12-18T07:53:12.063Z,-6.30
2022-12-18T07:58:15.187Z,-6.23
2022-12-18T08:03:17.779Z,-6.04
2022-12-18T08:08:20.497Z,-6.04
2022-12-18T08:13:24.140Z,-5.86
2022-12-18T08:18:27.452Z,-6.06
2022-12-18T08:23:30.024Z,-5.95
2022-12-18T08:28:32.909Z,-5.89
2022-12-18T08:33:37.020Z,-5.95
2022-12-18T08:38:39.624Z,-5.92
2022-12-18T08:44:00.797Z,-5.85
2022-12-18T08:49:04.361Z,-5.91
2022-12-18T08:54:07.931Z,-5.80
2022-12-18T08:59:15.828Z,-5.84
2022-12-18T09:04:21.590Z,-5.77
2022-12-18T09:09:24.126Z,-5.79
2022-12-18T09:14:27.239Z,-5.77
2022-12-18T09:19:29.795Z,-5.78
2022-12-18T09:24:32.542Z,-5.65
2022-12-18T09:29:35.427Z,-5.58
2022-12-18T09:34:37.975Z,-5.73
2022-12-18T09:39:40.573Z,-5.83
2022-12-18T09:44:50.119Z,-5.92
2022-12-18T09:50:18.642Z,-5.82
2022-12-18T09:55:37.469Z,-5.78
2022-12-18T10:00:43.540Z,-5.67
2022-12-18T10:06:14.385Z,-5.68
2022-12-18T10:11:26.135Z,-5.78
2022-12-18T10:17:04.674Z,-5.72
2022-12-18T10:22:32.130Z,-5.86
2022-12-18T10:27:34.952Z,-5.84
2022-12-18T10:32:37.724Z,-5.81
2022-12-18T10:38:20.545Z,-5.87
2022-12-18T10:43:31.331Z,-5.82
2022-12-18T10:48:41.280Z,-6.01
2022-12-18T10:54:13.283Z,-5.96
2022-12-18T10:59:18.667Z,-5.97
2022-12-18T11:04:24.266Z,-6.13
2022-12-18T11:09:30.226Z,-5.94
2022-12-18T11:14:57.691Z,-5.94
2022-12-18T11:20:04.916Z,-6.03
2022-12-18T11:30:37.959Z,-5.97
2022-12-18T11:35:51.019Z,-6.17
2022-12-18T11:41:05.317Z,-6.02
2022-12-18T11:46:19.623Z,-5.91
2022-12-18T11:51:39.004Z,-6.01
2022-12-18T11:57:08.754Z,-5.97
2022-12-18T12:02:53.510Z,-5.90
2022-12-18T12:08:41.975Z,-5.86
2022-12-18T12:14:18.538Z,-5.78
2022-12-18T12:19:28.973Z,-6.11
2022-12-18T12:24:59.934Z,-5.85
2022-12-18T12:30:17.808Z,-5.82
2022-12-18T12:35:38.586Z,-5.81
2022-12-18T12:40:53.874Z,-5.70
2022-12-18T12:46:04.377Z,-5.74
2022-12-18T12:51:17.330Z,-5.77
2022-12-18T12:56:22.494Z,-5.68
2022-12-18T13:01:44.629Z,-5.80
2022-12-18T13:07:26.164Z,-5.79
2022-12-18T13:12:48.528Z,-5.73
2022-12-18T13:18:24.196Z,-5.64
2022-12-18T13:23:29.403Z,-5.69
2022-12-18T13:28:47.927Z,-5.54
2022-12-18T13:34:24.460Z,-5.60
2022-12-18T13:39:21.259Z,-5.61
2022-12-18T13:44:42.270Z,-5.74
2022-12-18T13:49:45.968Z,-5.75
2022-12-18T13:54:58.459Z,-5.76
2022-12-18T14:00:23.903Z,-5.56
2022-12-18T14:05:28.135Z,-5.49
2022-12-18T14:10:48.198Z,-5.51
2022-12-18T14:15:52.784Z,-5.57
2022-12-18T14:21:01.085Z,-5.67
2022-12-18T14:26:20.956Z,-5.76
2022-12-18T14:31:29.806Z,-5.83
2022-12-18T14:36:32.794Z,-6.08
2022-12-18T14:41:35.598Z,-5.94
2022-12-18T14:46:41.049Z,-6.17
2022-12-18T14:51:49.901Z,-6.18
2022-12-18T14:57:01.944Z,-6.20
2022-12-18T15:02:26.838Z,-6.21
2022-12-18T15:07:50.807Z,-6.40
2022-12-18T15:13:03.987Z,-6.31
2022-12-18T15:18:09.719Z,-6.29
2022-12-18T15:23:47.509Z,-6.33
2022-12-18T15:29:04.088Z,-6.47
2022-12-18T15:34:11.821Z,-6.61
2022-12-18T15:39:14.684Z,-6.80
2022-12-18T15:44:26.717Z,-6.90
2022-12-18T15:49:29.648Z,-7.00
2022-12-18T15:54:51.259Z,-7.12
2022-12-18T15:59:55.244Z,-7.34
2022-12-18T16:04:57.941Z,-7.62
2022-12-18T16:10:02.218Z,-7.59
2022-12-18T16:15:07.090Z,-7.92
2022-12-18T16:20:18.247Z,-8.33
2022-12-18T16:25:23.772Z,-8.28
2022-12-18T16:30:29.479Z,-8.29
2022-12-18T16:35:40.839Z,-8.20
2022-12-18T16:41:03.346Z,-8.21
2022-12-18T16:46:06.123Z,-8.35
2022-12-18T16:51:09.003Z,-8.41
2022-12-18T16:56:11.643Z,-8.44
2022-12-18T17:01:14.230Z,-8.44
2022-12-18T17:06:17.077Z,-8.43
2022-12-18T17:11:21.552Z,-8.42
2022-12-18T17:16:24.429Z,-8.47
2022-12-18T17:21:27.003Z,-8.55
2022-12-18T17:26:30.395Z,-8.59
2022-12-18T17:31:33.421Z,-8.59
2022-12-18T17:36:36.877Z,-8.92
2022-12-18T17:41:39.441Z,-9.00
2022-12-18T17:46:42.653Z,-9.43
2022-12-18T17:51:45.356Z,-9.83
2022-12-18T17:56:47.955Z,-9.74
2022-12-18T18:01:50.855Z,-10.10
2022-12-18T18:06:53.651Z,-10.33
2022-12-18T18:12:14.792Z,-10.31
2022-12-18T18:17:17.493Z,-10.68
2022-12-18T18:22:20.278Z,-10.81
2022-12-18T18:27:22.927Z,-10.80
2022-12-18T18:32:25.608Z,-10.87
2022-12-18T18:37:28.618Z,-10.79
2022-12-18T18:42:31.273Z,-10.83
2022-12-18T18:47:33.880Z,-10.68
2022-12-18T18:52:36.391Z,-10.68
2022-12-18T18:57:42.171Z,-10.69
2022-12-18T19:02:45.627Z,-10.55
2022-12-18T19:07:48.340Z,-10.57
2022-12-18T19:13:09.487Z,-10.72
2022-12-18T19:18:12.100Z,-10.69
2022-12-18T19:23:14.992Z,-10.80
2022-12-18T19:28:22.279Z,-10.82
2022-12-18T19:38:49.739Z,-11.05
2022-12-18T19:43:53.346Z,-11.02
2022-12-18T19:48:56.050Z,-11.00
2022-12-18T19:54:01.738Z,-10.92
2022-12-18T19:59:05.819Z,-11.32
2022-12-18T20:04:08.556Z,-11.08
2022-12-18T20:09:11.921Z,-11.26
2022-12-18T20:14:16.935Z,-11.27
2022-12-18T20:19:26.727Z,-11.13
2022-12-18T20:24:29.286Z,-11.08
2022-12-18T20:29:31.847Z,-11.01
2022-12-18T20:34:34.574Z,-11.11
2022-12-18T20:39:37.859Z,-11.04
2022-12-18T20:44:40.740Z,-11.08
2022-12-18T20:49:45.583Z,-11.15
2022-12-18T20:54:48.963Z,-11.46
2022-12-18T20:59:52.820Z,-11.50
2022-12-18T21:04:55.382Z,-11.45
2022-12-18T21:09:58.028Z,-11.43
2022-12-18T21:15:02.582Z,-11.30
2022-12-18T21:20:07.663Z,-11.40
2022-12-18T21:25:10.562Z,-11.43
2022-12-18T21:30:15.081Z,-11.36
2022-12-18T21:35:18.011Z,-11.26
2022-12-18T21:40:22.546Z,-11.15
2022-12-18T21:45:25.375Z,-11.44
2022-12-18T21:50:27.920Z,-11.23
2022-12-18T21:55:30.484Z,-11.25
2022-12-18T22:00:33.453Z,-11.24
2022-12-18T22:05:36.706Z,-11.16
2022-12-18T22:10:39.654Z,-11.23
2022-12-18T22:15:42.699Z,-11.25
2022-12-18T22:20:45.340Z,-11.22
2022-12-18T22:25:47.951Z,-11.17
2022-12-18T22:30:51.962Z,-11.17
2022-12-18T22:36:08.172Z,-11.28
2022-12-18T22:41:10.722Z,-11.28
2022-12-18T22:46:19.230Z,-11.13
2022-12-18T22:51:21.997Z,-11.09
2022-12-18T22:56:24.852Z,-11.19
2022-12-18T23:01:29.677Z,-11.20
2022-12-18T23:06:32.693Z,-11.05
2022-12-18T23:11:35.265Z,-10.89
2022-12-18T23:16:37.946Z,-10.91
2022-12-18T23:21:40.818Z,-10.88
2022-12-18T23:26:43.399Z,-10.82
2022-12-18T23:31:46.176Z,-10.83
2022-12-18T23:36:52.035Z,-10.83
2022-12-18T23:42:00.553Z,-10.88
2022-12-18T23:47:03.262Z,-10.86
2022-12-18T23:52:05.807Z,-10.73
2022-12-18T23:57:08.481Z,-10.76
